Terminal Aerodrome Forecast
Issued by NWS Wakefield, VA

Home | Current Version | Previous Version | Text Only | Print | Product List | Glossary On
Versions: 1 2 3 4 5 6 7 8 9 10 11 12 13 14 15 16 17 18 19 20 21
795
FTUS41 KAKQ 260554 RRA
TAFSBY
TAF
KSBY 260554Z 2606/2706 05007KT P6SM OVC004
     FM261200 05008KT P6SM OVC007
     FM261500 05010G16KT P6SM BKN008
     FM261800 05013G18KT P6SM BKN010
     FM270300 03010G17KT P6SM BKN008=

USA.gov is the U.S. government's official web portal to all federal, state and local government web resources and services.